Thunderstorms From: 15-12-2017 06:00 Until: 16-12-2017 06:00 warning for: Thunderstorms Level: Yellow info button

Although rather usual in this region, locally or potentially dangerous phenomena are expected. (such as local winds, summer thunderstorms, rising streams or high waves) Be aware and pay attention to the latest weather updates, especially if you carry out activities exposed to weather or close to a stream or shoreline. 


Meteo18 Weather Cam more information Meteo18 Weather Cam


warning for Thunderstorms more information blitzortung!


Rain radar more information rain snow radar


Visit our other weather sites:

Template documentation
and downloads

And another site



Weather Underground History page Text

Daily Summary for July 21, 2017 Units:  Both    English   Metric
« Previous Day
Next Day »
Daily Weekly Monthly Yearly Custom
  High: Low: Average:
Temperature: 74.5 °F /  23.6 °C 50.7 °F /  10.4 °C 64.6 °F /  18.1 °C
Dew Point: 56.5 °F /  13.6 °C 47.8 °F /  8.8 °C 52.9 °F /  11.6 °C
Humidity: 90 % 49 % 68 %
Wind Speed: 17 mph /  27.4 km/h - 3.2 mph /  5.2 km/h
Wind Gust: 17 mph /  27.4 km/h - -
Wind:- - SSW
Pressure: 30 in /  1016.1 hPa 29.9 in /  1011.4 hPa -
Precipitation: 0 in /  0.0 mm    
Historical Graphs
 
 
Tabular Data for July 21, 2017
Time Temperature Dew Point Pressure Wind Wind Speed Wind Gust Humidity Rainfall Rate (Hourly)
00:07 59 °F /  15.0 °C 53.2 °F /  11.8 °C 30 in /  1016.1 hPa Calm   2 mph /  3.2 km/h 81 % 0 in /  0.0 mm
00:12 59.2 °F /  15.1 °C 53.4 °F /  11.9 °C 30 in /  1016.1 hPa Calm   2 mph /  3.2 km/h 81 % 0 in /  0.0 mm
00:17 59.4 °F /  15.2 °C 53.2 °F /  11.8 °C 30 in /  1016.1 hPa Calm   2 mph /  3.2 km/h 80 % 0 in /  0.0 mm
00:22 59.5 °F /  15.3 °C 53.4 °F /  11.9 °C 30 in /  1016.1 hPa Calm   1 mph /  1.6 km/h 80 % 0 in /  0.0 mm
00:27 59.4 °F /  15.2 °C 53.2 °F /  11.8 °C 30 in /  1016.1 hPa Calm   1 mph /  1.6 km/h 80 % 0 in /  0.0 mm
00:32 59.4 °F /  15.2 °C 53.6 °F /  12.0 °C 30 in /  1016.1 hPa Calm     81 % 0 in /  0.0 mm
00:37 59.2 °F /  15.1 °C 53.4 °F /  11.9 °C 30 in /  1016.1 hPa Calm     81 % 0 in /  0.0 mm
00:42 59.2 °F /  15.1 °C 53.4 °F /  11.9 °C 30 in /  1016.1 hPa Calm     81 % 0 in /  0.0 mm
00:47 59.4 °F /  15.2 °C 53.6 °F /  12.0 °C 30 in /  1016.1 hPa Calm     81 % 0 in /  0.0 mm
00:52 59.2 °F /  15.1 °C 53.4 °F /  11.9 °C 30 in /  1016.1 hPa Calm     81 % 0 in /  0.0 mm
01:02 58.6 °F /  14.8 °C 53.2 °F /  11.8 °C 30 in /  1016.1 hPa Calm   1 mph /  1.6 km/h 82 % 0 in /  0.0 mm
01:07 58.5 °F /  14.7 °C 53.2 °F /  11.8 °C 30 in /  1016.1 hPa Calm   2 mph /  3.2 km/h 83 % 0 in /  0.0 mm
01:12 58.6 °F /  14.8 °C 53.2 °F /  11.8 °C 30 in /  1016.1 hPa Calm   2 mph /  3.2 km/h 82 % 0 in /  0.0 mm
01:17 58.6 °F /  14.8 °C 53.2 °F /  11.8 °C 30 in /  1016.1 hPa Calm   1 mph /  1.6 km/h 82 % 0 in /  0.0 mm
01:22 58.6 °F /  14.8 °C 53.2 °F /  11.8 °C 30 in /  1016.1 hPa Calm   1 mph /  1.6 km/h 82 % 0 in /  0.0 mm
01:27 58.6 °F /  14.8 °C 53.2 °F /  11.8 °C 30 in /  1016.1 hPa Calm   1 mph /  1.6 km/h 82 % 0 in /  0.0 mm
01:32 58.6 °F /  14.8 °C 53.2 °F /  11.8 °C 30 in /  1016.1 hPa Calm   1 mph /  1.6 km/h 82 % 0 in /  0.0 mm
01:37 58.5 °F /  14.7 °C 53.1 °F /  11.7 °C 30 in /  1016.1 hPa Calm   1 mph /  1.6 km/h 82 % 0 in /  0.0 mm
01:42 58.5 °F /  14.7 °C 53.2 °F /  11.8 °C 30 in /  1016.1 hPa Calm   1 mph /  1.6 km/h 83 % 0 in /  0.0 mm
01:47 58.3 °F /  14.6 °C 52.9 °F /  11.6 °C 30 in /  1016.1 hPa Calm     82 % 0 in /  0.0 mm
01:52 58.3 °F /  14.6 °C 53.1 °F /  11.7 °C 30 in /  1016.1 hPa Calm     83 % 0 in /  0.0 mm
01:57 57.9 °F /  14.4 °C 52.7 °F /  11.5 °C 30 in /  1016.1 hPa Calm     83 % 0 in /  0.0 mm
02:02 57.7 °F /  14.3 °C 52.7 °F /  11.5 °C 30 in /  1016.1 hPa Calm     83 % 0 in /  0.0 mm
02:07 57.7 °F /  14.3 °C 52.9 °F /  11.6 °C 30 in /  1016.1 hPa Calm     84 % 0 in /  0.0 mm
02:12 57.7 °F /  14.3 °C 52.7 °F /  11.5 °C 30 in /  1016.1 hPa Calm     83 % 0 in /  0.0 mm
02:17 57.7 °F /  14.3 °C 52.7 °F /  11.5 °C 30 in /  1016.1 hPa Calm     83 % 0 in /  0.0 mm
02:22 57.4 °F /  14.1 °C 52.3 °F /  11.3 °C 30 in /  1016.1 hPa Calm     83 % 0 in /  0.0 mm
02:27 56.8 °F /  13.8 °C 51.8 °F /  11.0 °C 30 in /  1016.1 hPa Calm     83 % 0 in /  0.0 mm
02:32 57 °F /  13.9 °C 52 °F /  11.1 °C 30 in /  1016.1 hPa SW 3 mph /  4.8 km/h   83 % 0 in /  0.0 mm
02:37 58.3 °F /  14.6 °C 52.2 °F /  11.2 °C 30 in /  1016.1 hPa SW 2 mph /  3.2 km/h 5 mph /  8.0 km/h 80 % 0 in /  0.0 mm
02:42 58.5 °F /  14.7 °C 52 °F /  11.1 °C 30 in /  1016.1 hPa SW 1 mph /  1.6 km/h 5 mph /  8.0 km/h 79 % 0 in /  0.0 mm
02:52 58.3 °F /  14.6 °C 51.8 °F /  11.0 °C 30 in /  1015.8 hPa Calm   6 mph /  9.7 km/h 79 % 0 in /  0.0 mm
03:02 57.7 °F /  14.3 °C 51.6 °F /  10.9 °C 30 in /  1015.8 hPa NNW 1 mph /  1.6 km/h 1 mph /  1.6 km/h 80 % 0 in /  0.0 mm
03:12 55.9 °F /  13.3 °C 50.9 °F /  10.5 °C 30 in /  1015.5 hPa NNE 3 mph /  4.8 km/h 3 mph /  4.8 km/h 83 % 0 in /  0.0 mm
03:22 55.6 °F /  13.1 °C 51.4 °F /  10.8 °C 30 in /  1015.5 hPa NNE 1 mph /  1.6 km/h 4 mph /  6.4 km/h 86 % 0 in /  0.0 mm
03:27 55.8 °F /  13.2 °C 51.6 °F /  10.9 °C 30 in /  1015.5 hPa Calm   3 mph /  4.8 km/h 86 % 0 in /  0.0 mm
03:32 55.9 °F /  13.3 °C 51.8 °F /  11.0 °C 30 in /  1015.5 hPa Calm   3 mph /  4.8 km/h 86 % 0 in /  0.0 mm
03:42 55.9 °F /  13.3 °C 51.8 °F /  11.0 °C 30 in /  1015.5 hPa SW 1 mph /  1.6 km/h 2 mph /  3.2 km/h 86 % 0 in /  0.0 mm
03:47 55.9 °F /  13.3 °C 51.4 °F /  10.8 °C 30 in /  1015.5 hPa Calm   1 mph /  1.6 km/h 85 % 0 in /  0.0 mm
03:52 55.9 °F /  13.3 °C 51.4 °F /  10.8 °C 30 in /  1015.5 hPa Calm   1 mph /  1.6 km/h 85 % 0 in /  0.0 mm
03:57 55.8 °F /  13.2 °C 51.3 °F /  10.7 °C 30 in /  1015.5 hPa Calm   1 mph /  1.6 km/h 85 % 0 in /  0.0 mm
04:02 55.9 °F /  13.3 °C 51.4 °F /  10.8 °C 30 in /  1015.5 hPa SE 2 mph /  3.2 km/h 2 mph /  3.2 km/h 85 % 0 in /  0.0 mm
04:07 55.9 °F /  13.3 °C 51.3 °F /  10.7 °C 30 in /  1015.5 hPa Calm   2 mph /  3.2 km/h 84 % 0 in /  0.0 mm
04:12 55.2 °F /  12.9 °C 50.7 °F /  10.4 °C 30 in /  1015.5 hPa Calm   2 mph /  3.2 km/h 85 % 0 in /  0.0 mm
04:17 55 °F /  12.8 °C 50.5 °F /  10.3 °C 30 in /  1015.5 hPa Calm   2 mph /  3.2 km/h 85 % 0 in /  0.0 mm
04:22 55 °F /  12.8 °C 50.5 °F /  10.3 °C 30 in /  1015.5 hPa Calm   2 mph /  3.2 km/h 85 % 0 in /  0.0 mm
04:32 54.9 °F /  12.7 °C 50.4 °F /  10.2 °C 30 in /  1015.5 hPa Calm   1 mph /  1.6 km/h 85 % 0 in /  0.0 mm
04:42 54.3 °F /  12.4 °C 50.2 °F /  10.1 °C 30 in /  1015.5 hPa Calm     86 % 0 in /  0.0 mm
04:47 54.1 °F /  12.3 °C 50 °F /  10.0 °C 30 in /  1015.5 hPa Calm   1 mph /  1.6 km/h 86 % 0 in /  0.0 mm
04:52 53.6 °F /  12.0 °C 49.5 °F /  9.7 °C 30 in /  1015.5 hPa SSE 1 mph /  1.6 km/h 1 mph /  1.6 km/h 86 % 0 in /  0.0 mm
04:57 53.1 °F /  11.7 °C 49.3 °F /  9.6 °C 30 in /  1015.5 hPa SE 1 mph /  1.6 km/h 2 mph /  3.2 km/h 87 % 0 in /  0.0 mm
05:02 52.5 °F /  11.4 °C 49.1 °F /  9.5 °C 30 in /  1015.5 hPa Calm   2 mph /  3.2 km/h 88 % 0 in /  0.0 mm
05:12 52.3 °F /  11.3 °C 49.3 °F /  9.6 °C 30 in /  1015.5 hPa Calm   3 mph /  4.8 km/h 89 % 0 in /  0.0 mm
05:17 52.2 °F /  11.2 °C 49.1 °F /  9.5 °C 30 in /  1015.5 hPa SE 1 mph /  1.6 km/h 3 mph /  4.8 km/h 89 % 0 in /  0.0 mm
05:22 52 °F /  11.1 °C 48.9 °F /  9.4 °C 30 in /  1015.5 hPa SE 1 mph /  1.6 km/h 3 mph /  4.8 km/h 89 % 0 in /  0.0 mm
05:32 51.8 °F /  11.0 °C 48.7 °F /  9.3 °C 30 in /  1015.5 hPa Calm   2 mph /  3.2 km/h 89 % 0 in /  0.0 mm
05:37 51.8 °F /  11.0 °C 48.9 °F /  9.4 °C 30 in /  1015.5 hPa Calm   2 mph /  3.2 km/h 90 % 0 in /  0.0 mm
05:42 51.8 °F /  11.0 °C 48.9 °F /  9.4 °C 30 in /  1015.5 hPa Calm   2 mph /  3.2 km/h 90 % 0 in /  0.0 mm
05:52 51.6 °F /  10.9 °C 48.6 °F /  9.2 °C 30 in /  1015.5 hPa Calm   1 mph /  1.6 km/h 89 % 0 in /  0.0 mm
05:57 51.6 °F /  10.9 °C 48.7 °F /  9.3 °C 30 in /  1015.5 hPa Calm   1 mph /  1.6 km/h 90 % 0 in /  0.0 mm
06:07 51.6 °F /  10.9 °C 48.7 °F /  9.3 °C 30 in /  1015.5 hPa Calm   1 mph /  1.6 km/h 90 % 0 in /  0.0 mm
06:12 51.6 °F /  10.9 °C 48.7 °F /  9.3 °C 30 in /  1015.5 hPa Calm   1 mph /  1.6 km/h 90 % 0 in /  0.0 mm
06:17 51.8 °F /  11.0 °C 48.9 °F /  9.4 °C 30 in /  1015.5 hPa Calm   1 mph /  1.6 km/h 90 % 0 in /  0.0 mm
06:22 51.6 °F /  10.9 °C 48.6 °F /  9.2 °C 30 in /  1015.5 hPa Calm   1 mph /  1.6 km/h 89 % 0 in /  0.0 mm
06:32 51.1 °F /  10.6 °C 48 °F /  8.9 °C 30 in /  1015.5 hPa Calm   1 mph /  1.6 km/h 89 % 0 in /  0.0 mm
06:42 50.7 °F /  10.4 °C 47.8 °F /  8.8 °C 30 in /  1015.5 hPa Calm   1 mph /  1.6 km/h 90 % 0 in /  0.0 mm
06:47 51.1 °F /  10.6 °C 48.2 °F /  9.0 °C 30 in /  1015.5 hPa Calm     90 % 0 in /  0.0 mm
06:52 51.3 °F /  10.7 °C 48.4 °F /  9.1 °C 30 in /  1015.5 hPa Calm     90 % 0 in /  0.0 mm
06:57 51.6 °F /  10.9 °C 48.6 °F /  9.2 °C 30 in /  1015.5 hPa Calm     89 % 0 in /  0.0 mm
07:02 51.8 °F /  11.0 °C 48.4 °F /  9.1 °C 30 in /  1015.5 hPa Calm     88 % 0 in /  0.0 mm
07:12 52.5 °F /  11.4 °C 49.1 °F /  9.5 °C 30 in /  1015.5 hPa Calm     88 % 0 in /  0.0 mm
07:17 52.5 °F /  11.4 °C 48.7 °F /  9.3 °C 30 in /  1015.5 hPa SSW 1 mph /  1.6 km/h 1 mph /  1.6 km/h 87 % 0 in /  0.0 mm
07:22 52.9 °F /  11.6 °C 49.1 °F /  9.5 °C 30 in /  1015.5 hPa SSW 1 mph /  1.6 km/h 1 mph /  1.6 km/h 87 % 0 in /  0.0 mm
07:32 53.6 °F /  12.0 °C 49.5 °F /  9.7 °C 30 in /  1015.5 hPa SSW 2 mph /  3.2 km/h 3 mph /  4.8 km/h 86 % 0 in /  0.0 mm
07:42 54.3 °F /  12.4 °C 50.5 °F /  10.3 °C 30 in /  1015.5 hPa SSE 1 mph /  1.6 km/h 3 mph /  4.8 km/h 87 % 0 in /  0.0 mm
07:47 55.2 °F /  12.9 °C 51.1 °F /  10.6 °C 30 in /  1015.5 hPa Calm   3 mph /  4.8 km/h 86 % 0 in /  0.0 mm
07:52 55.8 °F /  13.2 °C 51.3 °F /  10.7 °C 30 in /  1015.5 hPa SSW 3 mph /  4.8 km/h 3 mph /  4.8 km/h 85 % 0 in /  0.0 mm
07:57 55.9 °F /  13.3 °C 51.3 °F /  10.7 °C 30 in /  1015.5 hPa SSE 1 mph /  1.6 km/h 3 mph /  4.8 km/h 84 % 0 in /  0.0 mm
08:02 56.5 °F /  13.6 °C 51.4 °F /  10.8 °C 30 in /  1015.5 hPa Calm   3 mph /  4.8 km/h 83 % 0 in /  0.0 mm
08:12 57 °F /  13.9 °C 51.3 °F /  10.7 °C 30 in /  1015.5 hPa SSW 4 mph /  6.4 km/h 4 mph /  6.4 km/h 81 % 0 in /  0.0 mm
08:17 57 °F /  13.9 °C 51.3 °F /  10.7 °C 30 in /  1015.5 hPa SW 2 mph /  3.2 km/h 4 mph /  6.4 km/h 81 % 0 in /  0.0 mm
08:22 57 °F /  13.9 °C 51.3 °F /  10.7 °C 30 in /  1015.5 hPa SW 2 mph /  3.2 km/h 4 mph /  6.4 km/h 81 % 0 in /  0.0 mm
08:32 57.7 °F /  14.3 °C 51.6 °F /  10.9 °C 30 in /  1015.5 hPa SW 1 mph /  1.6 km/h 5 mph /  8.0 km/h 80 % 0 in /  0.0 mm
08:42 58.5 °F /  14.7 °C 51.6 °F /  10.9 °C 30 in /  1015.5 hPa SW 1 mph /  1.6 km/h 5 mph /  8.0 km/h 78 % 0 in /  0.0 mm
08:52 59.2 °F /  15.1 °C 51.6 °F /  10.9 °C 30 in /  1015.5 hPa Calm   4 mph /  6.4 km/h 76 % 0 in /  0.0 mm
09:02 60.1 °F /  15.6 °C 52.2 °F /  11.2 °C 30 in /  1015.5 hPa SW 2 mph /  3.2 km/h 4 mph /  6.4 km/h 75 % 0 in /  0.0 mm
09:07 60.1 °F /  15.6 °C 51.8 °F /  11.0 °C 30 in /  1015.5 hPa SW 5 mph /  8.0 km/h 5 mph /  8.0 km/h 74 % 0 in /  0.0 mm
09:12 59.7 °F /  15.4 °C 51.8 °F /  11.0 °C 30 in /  1015.5 hPa SSE 3 mph /  4.8 km/h 4 mph /  6.4 km/h 75 % 0 in /  0.0 mm
09:17 59.9 °F /  15.5 °C 51.6 °F /  10.9 °C 30 in /  1015.5 hPa SSW 2 mph /  3.2 km/h 6 mph /  9.7 km/h 74 % 0 in /  0.0 mm
09:22 60.4 °F /  15.8 °C 52.5 °F /  11.4 °C 30 in /  1015.5 hPa SSW 2 mph /  3.2 km/h 6 mph /  9.7 km/h 75 % 0 in /  0.0 mm
09:32 60.6 °F /  15.9 °C 51.6 °F /  10.9 °C 30 in /  1015.5 hPa SSW 1 mph /  1.6 km/h 6 mph /  9.7 km/h 72 % 0 in /  0.0 mm
09:42 61.5 °F /  16.4 °C 52.3 °F /  11.3 °C 30 in /  1015.5 hPa SW 3 mph /  4.8 km/h 5 mph /  8.0 km/h 72 % 0 in /  0.0 mm
09:52 62.6 °F /  17.0 °C 52.3 °F /  11.3 °C 30 in /  1015.5 hPa SSW 2 mph /  3.2 km/h 5 mph /  8.0 km/h 69 % 0 in /  0.0 mm
09:57 63.1 °F /  17.3 °C 52.9 °F /  11.6 °C 30 in /  1015.5 hPa SW 5 mph /  8.0 km/h 5 mph /  8.0 km/h 69 % 0 in /  0.0 mm
10:02 63 °F /  17.2 °C 52.2 °F /  11.2 °C 30 in /  1015.5 hPa WSW 2 mph /  3.2 km/h 5 mph /  8.0 km/h 68 % 0 in /  0.0 mm
10:12 63.9 °F /  17.7 °C 52.3 °F /  11.3 °C 30 in /  1015.5 hPa SW 3 mph /  4.8 km/h 6 mph /  9.7 km/h 66 % 0 in /  0.0 mm
10:17 64 °F /  17.8 °C 52.5 °F /  11.4 °C 30 in /  1015.5 hPa SW 1 mph /  1.6 km/h 5 mph /  8.0 km/h 66 % 0 in /  0.0 mm
10:22 64.2 °F /  17.9 °C 51.8 °F /  11.0 °C 30 in /  1015.5 hPa SW 1 mph /  1.6 km/h 5 mph /  8.0 km/h 64 % 0 in /  0.0 mm
10:32 64.8 °F /  18.2 °C 51.1 °F /  10.6 °C 30 in /  1015.5 hPa ESE 1 mph /  1.6 km/h 5 mph /  8.0 km/h 61 % 0 in /  0.0 mm
10:42 64.8 °F /  18.2 °C 51.1 °F /  10.6 °C 30 in /  1015.5 hPa WSW 3 mph /  4.8 km/h 4 mph /  6.4 km/h 61 % 0 in /  0.0 mm
10:52 64.9 °F /  18.3 °C 51.1 °F /  10.6 °C 30 in /  1015.5 hPa SW 2 mph /  3.2 km/h 9 mph /  14.5 km/h 61 % 0 in /  0.0 mm
11:02 64.8 °F /  18.2 °C 51.1 °F /  10.6 °C 30 in /  1015.5 hPa SW 4 mph /  6.4 km/h 8 mph /  12.9 km/h 61 % 0 in /  0.0 mm
11:12 65.7 °F /  18.7 °C 50.5 °F /  10.3 °C 30 in /  1015.1 hPa WSW 5 mph /  8.0 km/h 8 mph /  12.9 km/h 58 % 0 in /  0.0 mm
11:17 65.5 °F /  18.6 °C 50.4 °F /  10.2 °C 30 in /  1015.1 hPa WSW 3 mph /  4.8 km/h 7 mph /  11.3 km/h 58 % 0 in /  0.0 mm
11:22 65.7 °F /  18.7 °C 50.9 °F /  10.5 °C 30 in /  1015.1 hPa WSW 1 mph /  1.6 km/h 7 mph /  11.3 km/h 59 % 0 in /  0.0 mm
11:32 66.4 °F /  19.1 °C 50.2 °F /  10.1 °C 30 in /  1015.1 hPa SSW 4 mph /  6.4 km/h 8 mph /  12.9 km/h 56 % 0 in /  0.0 mm
11:42 66.7 °F /  19.3 °C 50.5 °F /  10.3 °C 30 in /  1014.8 hPa SW 3 mph /  4.8 km/h 7 mph /  11.3 km/h 56 % 0 in /  0.0 mm
11:47 67.1 °F /  19.5 °C 50.4 °F /  10.2 °C 30 in /  1014.8 hPa WSW 2 mph /  3.2 km/h 7 mph /  11.3 km/h 55 % 0 in /  0.0 mm
11:52 67.5 °F /  19.7 °C 50.7 °F /  10.4 °C 30 in /  1014.8 hPa South 4 mph /  6.4 km/h 7 mph /  11.3 km/h 55 % 0 in /  0.0 mm
12:02 67.1 °F /  19.5 °C 51.4 °F /  10.8 °C 30 in /  1014.8 hPa SSW 3 mph /  4.8 km/h 6 mph /  9.7 km/h 57 % 0 in /  0.0 mm
12:12 67.8 °F /  19.9 °C 51.1 °F /  10.6 °C 30 in /  1014.8 hPa Calm   9 mph /  14.5 km/h 55 % 0 in /  0.0 mm
12:17 68.4 °F /  20.2 °C 51.6 °F /  10.9 °C 30 in /  1014.4 hPa SW 4 mph /  6.4 km/h 10 mph /  16.1 km/h 55 % 0 in /  0.0 mm
12:22 68.9 °F /  20.5 °C 52.5 °F /  11.4 °C 30 in /  1014.4 hPa SW 4 mph /  6.4 km/h 10 mph /  16.1 km/h 56 % 0 in /  0.0 mm
12:32 69.6 °F /  20.9 °C 51.8 °F /  11.0 °C 30 in /  1014.4 hPa SSW 4 mph /  6.4 km/h 8 mph /  12.9 km/h 53 % 0 in /  0.0 mm
12:42 70 °F /  21.1 °C 52 °F /  11.1 °C 30 in /  1014.4 hPa South 2 mph /  3.2 km/h 10 mph /  16.1 km/h 53 % 0 in /  0.0 mm
12:47 69.8 °F /  21.0 °C 52.3 °F /  11.3 °C 30 in /  1014.4 hPa WSW 6 mph /  9.7 km/h 12 mph /  19.3 km/h 54 % 0 in /  0.0 mm
12:52 69.8 °F /  21.0 °C 52.3 °F /  11.3 °C 29.9 in /  1014.1 hPa SSW 5 mph /  8.0 km/h 12 mph /  19.3 km/h 54 % 0 in /  0.0 mm
12:57 70.3 °F /  21.3 °C 52.9 °F /  11.6 °C 29.9 in /  1014.1 hPa West 8 mph /  12.9 km/h 12 mph /  19.3 km/h 54 % 0 in /  0.0 mm
13:02 70.5 °F /  21.4 °C 52.5 °F /  11.4 °C 30 in /  1014.4 hPa West 5 mph /  8.0 km/h 12 mph /  19.3 km/h 53 % 0 in /  0.0 mm
13:12 71.2 °F /  21.8 °C 52.7 °F /  11.5 °C 29.9 in /  1014.1 hPa WSW 12 mph /  19.3 km/h 13 mph /  20.9 km/h 52 % 0 in /  0.0 mm
13:17 71.2 °F /  21.8 °C 52.7 °F /  11.5 °C 29.9 in /  1014.1 hPa SSW 6 mph /  9.7 km/h 14 mph /  22.5 km/h 52 % 0 in /  0.0 mm
13:22 71.4 °F /  21.9 °C 51.8 °F /  11.0 °C 29.9 in /  1014.1 hPa SSE 2 mph /  3.2 km/h 14 mph /  22.5 km/h 50 % 0 in /  0.0 mm
13:32 71.6 °F /  22.0 °C 52.5 °F /  11.4 °C 29.9 in /  1014.1 hPa West 7 mph /  11.3 km/h 14 mph /  22.5 km/h 51 % 0 in /  0.0 mm
13:42 72.3 °F /  22.4 °C 53.2 °F /  11.8 °C 29.9 in /  1013.8 hPa SW 5 mph /  8.0 km/h 13 mph /  20.9 km/h 51 % 0 in /  0.0 mm
13:47 72.3 °F /  22.4 °C 52.7 °F /  11.5 °C 29.9 in /  1013.8 hPa SSW 8 mph /  12.9 km/h 13 mph /  20.9 km/h 50 % 0 in /  0.0 mm
13:52 72.7 °F /  22.6 °C 52.9 °F /  11.6 °C 29.9 in /  1013.8 hPa SW 7 mph /  11.3 km/h 13 mph /  20.9 km/h 50 % 0 in /  0.0 mm
14:02 72.3 °F /  22.4 °C 53.2 °F /  11.8 °C 29.9 in /  1013.8 hPa SW 4 mph /  6.4 km/h 14 mph /  22.5 km/h 51 % 0 in /  0.0 mm
14:07 72.5 °F /  22.5 °C 53.4 °F /  11.9 °C 29.9 in /  1013.8 hPa SW 6 mph /  9.7 km/h 14 mph /  22.5 km/h 51 % 0 in /  0.0 mm
14:12 73 °F /  22.8 °C 53.8 °F /  12.1 °C 29.9 in /  1013.8 hPa SW 8 mph /  12.9 km/h 14 mph /  22.5 km/h 51 % 0 in /  0.0 mm
14:22 72.9 °F /  22.7 °C 53.1 °F /  11.7 °C 29.9 in /  1013.8 hPa South 5 mph /  8.0 km/h 15 mph /  24.1 km/h 50 % 0 in /  0.0 mm
14:32 73.6 °F /  23.1 °C 54.3 °F /  12.4 °C 29.9 in /  1013.4 hPa SW 6 mph /  9.7 km/h 15 mph /  24.1 km/h 51 % 0 in /  0.0 mm
14:37 73.2 °F /  22.9 °C 52.9 °F /  11.6 °C 29.9 in /  1013.4 hPa SW 9 mph /  14.5 km/h 16 mph /  25.7 km/h 49 % 0 in /  0.0 mm
14:42 73 °F /  22.8 °C 53.2 °F /  11.8 °C 29.9 in /  1013.8 hPa WSW 8 mph /  12.9 km/h 16 mph /  25.7 km/h 50 % 0 in /  0.0 mm
14:52 72.9 °F /  22.7 °C 53.1 °F /  11.7 °C 29.9 in /  1013.4 hPa WSW 11 mph /  17.7 km/h 16 mph /  25.7 km/h 50 % 0 in /  0.0 mm
14:57 73 °F /  22.8 °C 53.8 °F /  12.1 °C 29.9 in /  1013.4 hPa West 6 mph /  9.7 km/h 13 mph /  20.9 km/h 51 % 0 in /  0.0 mm
15:02 73 °F /  22.8 °C 52.7 °F /  11.5 °C 29.9 in /  1013.4 hPa ESE 8 mph /  12.9 km/h 13 mph /  20.9 km/h 49 % 0 in /  0.0 mm
15:12 72.9 °F /  22.7 °C 53.6 °F /  12.0 °C 29.9 in /  1013.4 hPa West 8 mph /  12.9 km/h 15 mph /  24.1 km/h 51 % 0 in /  0.0 mm
15:17 73 °F /  22.8 °C 53.2 °F /  11.8 °C 29.9 in /  1013.4 hPa WSW 8 mph /  12.9 km/h 14 mph /  22.5 km/h 50 % 0 in /  0.0 mm
15:22 73.2 °F /  22.9 °C 53.4 °F /  11.9 °C 29.9 in /  1013.1 hPa SW 6 mph /  9.7 km/h 14 mph /  22.5 km/h 50 % 0 in /  0.0 mm
15:27 73.2 °F /  22.9 °C 54 °F /  12.2 °C 29.9 in /  1013.1 hPa SSW 5 mph /  8.0 km/h 15 mph /  24.1 km/h 51 % 0 in /  0.0 mm
15:32 73.6 °F /  23.1 °C 53.8 °F /  12.1 °C 29.9 in /  1013.1 hPa SW 6 mph /  9.7 km/h 15 mph /  24.1 km/h 50 % 0 in /  0.0 mm
15:42 73 °F /  22.8 °C 53.2 °F /  11.8 °C 29.9 in /  1013.1 hPa WSW 5 mph /  8.0 km/h 16 mph /  25.7 km/h 50 % 0 in /  0.0 mm
15:52 72.9 °F /  22.7 °C 53.6 °F /  12.0 °C 29.9 in /  1012.8 hPa West 10 mph /  16.1 km/h 15 mph /  24.1 km/h 51 % 0 in /  0.0 mm
16:02 72.7 °F /  22.6 °C 52.9 °F /  11.6 °C 29.9 in /  1012.8 hPa SW 17 mph /  27.4 km/h 17 mph /  27.4 km/h 50 % 0 in /  0.0 mm
16:12 72.7 °F /  22.6 °C 54 °F /  12.2 °C 29.9 in /  1012.8 hPa SW 8 mph /  12.9 km/h 17 mph /  27.4 km/h 52 % 0 in /  0.0 mm
16:17 73 °F /  22.8 °C 54.3 °F /  12.4 °C 29.9 in /  1012.4 hPa SW 11 mph /  17.7 km/h 17 mph /  27.4 km/h 52 % 0 in /  0.0 mm
16:22 72.9 °F /  22.7 °C 54.1 °F /  12.3 °C 29.9 in /  1012.4 hPa SSW 8 mph /  12.9 km/h 17 mph /  27.4 km/h 52 % 0 in /  0.0 mm
16:32 72.9 °F /  22.7 °C 54.1 °F /  12.3 °C 29.9 in /  1012.1 hPa SW 7 mph /  11.3 km/h 14 mph /  22.5 km/h 52 % 0 in /  0.0 mm
16:42 72.9 °F /  22.7 °C 54.1 °F /  12.3 °C 29.9 in /  1012.1 hPa SSW 7 mph /  11.3 km/h 14 mph /  22.5 km/h 52 % 0 in /  0.0 mm
16:47 73.2 °F /  22.9 °C 54.5 °F /  12.5 °C 29.9 in /  1012.1 hPa SW 10 mph /  16.1 km/h 14 mph /  22.5 km/h 52 % 0 in /  0.0 mm
16:52 73.8 °F /  23.2 °C 54.5 °F /  12.5 °C 29.9 in /  1012.1 hPa WSW 3 mph /  4.8 km/h 14 mph /  22.5 km/h 51 % 0 in /  0.0 mm
16:57 73.9 °F /  23.3 °C 54.7 °F /  12.6 °C 29.9 in /  1012.1 hPa SW 6 mph /  9.7 km/h 13 mph /  20.9 km/h 51 % 0 in /  0.0 mm
17:02 73.9 °F /  23.3 °C 54.7 °F /  12.6 °C 29.9 in /  1012.4 hPa WSW 9 mph /  14.5 km/h 13 mph /  20.9 km/h 51 % 0 in /  0.0 mm
17:07 73.8 °F /  23.2 °C 54.5 °F /  12.5 °C 29.9 in /  1012.4 hPa SSW 9 mph /  14.5 km/h 15 mph /  24.1 km/h 51 % 0 in /  0.0 mm
17:12 73.6 °F /  23.1 °C 54.3 °F /  12.4 °C 29.9 in /  1012.4 hPa SW 5 mph /  8.0 km/h 15 mph /  24.1 km/h 51 % 0 in /  0.0 mm
17:17 73.8 °F /  23.2 °C 54.5 °F /  12.5 °C 29.9 in /  1012.4 hPa SW 10 mph /  16.1 km/h 14 mph /  22.5 km/h 51 % 0 in /  0.0 mm
17:22 73.9 °F /  23.3 °C 55.2 °F /  12.9 °C 29.9 in /  1012.4 hPa SW 14 mph /  22.5 km/h 14 mph /  22.5 km/h 52 % 0 in /  0.0 mm
17:27 74.1 °F /  23.4 °C 54.9 °F /  12.7 °C 29.9 in /  1012.4 hPa WSW 5 mph /  8.0 km/h 15 mph /  24.1 km/h 51 % 0 in /  0.0 mm
17:32 74.5 °F /  23.6 °C 55.2 °F /  12.9 °C 29.9 in /  1012.4 hPa SSW 5 mph /  8.0 km/h 15 mph /  24.1 km/h 51 % 0 in /  0.0 mm
17:37 74.5 °F /  23.6 °C 54.7 °F /  12.6 °C 29.9 in /  1012.8 hPa SW 7 mph /  11.3 km/h 15 mph /  24.1 km/h 50 % 0 in /  0.0 mm
17:42 74.5 °F /  23.6 °C 54.7 °F /  12.6 °C 29.9 in /  1012.8 hPa SW 8 mph /  12.9 km/h 15 mph /  24.1 km/h 50 % 0 in /  0.0 mm
17:52 74.1 °F /  23.4 °C 54.9 °F /  12.7 °C 29.9 in /  1012.8 hPa WSW 9 mph /  14.5 km/h 15 mph /  24.1 km/h 51 % 0 in /  0.0 mm
18:02 74.1 °F /  23.4 °C 54.9 °F /  12.7 °C 29.9 in /  1012.4 hPa SSW 10 mph /  16.1 km/h 15 mph /  24.1 km/h 51 % 0 in /  0.0 mm
18:07 74.1 °F /  23.4 °C 54.9 °F /  12.7 °C 29.9 in /  1012.4 hPa SW 9 mph /  14.5 km/h 15 mph /  24.1 km/h 51 % 0 in /  0.0 mm
18:12 74.1 °F /  23.4 °C 55.4 °F /  13.0 °C 29.9 in /  1012.4 hPa SSW 7 mph /  11.3 km/h 15 mph /  24.1 km/h 52 % 0 in /  0.0 mm
18:17 73.8 °F /  23.2 °C 55 °F /  12.8 °C 29.9 in /  1012.4 hPa South 6 mph /  9.7 km/h 14 mph /  22.5 km/h 52 % 0 in /  0.0 mm
18:22 73.8 °F /  23.2 °C 55 °F /  12.8 °C 29.9 in /  1012.4 hPa South 7 mph /  11.3 km/h 13 mph /  20.9 km/h 52 % 0 in /  0.0 mm
18:32 73.8 °F /  23.2 °C 55 °F /  12.8 °C 29.9 in /  1012.1 hPa SSW 6 mph /  9.7 km/h 13 mph /  20.9 km/h 52 % 0 in /  0.0 mm
18:37 73.8 °F /  23.2 °C 55.6 °F /  13.1 °C 29.9 in /  1012.1 hPa SSW 6 mph /  9.7 km/h 13 mph /  20.9 km/h 53 % 0 in /  0.0 mm
18:42 73.8 °F /  23.2 °C 55.6 °F /  13.1 °C 29.9 in /  1012.1 hPa SE 5 mph /  8.0 km/h 11 mph /  17.7 km/h 53 % 0 in /  0.0 mm
18:52 73.9 °F /  23.3 °C 55.8 °F /  13.2 °C 29.9 in /  1011.7 hPa SSE 3 mph /  4.8 km/h 10 mph /  16.1 km/h 53 % 0 in /  0.0 mm
18:57 73.8 °F /  23.2 °C 55.6 °F /  13.1 °C 29.9 in /  1011.7 hPa SE 2 mph /  3.2 km/h 9 mph /  14.5 km/h 53 % 0 in /  0.0 mm
19:02 73.8 °F /  23.2 °C 55.6 °F /  13.1 °C 29.9 in /  1011.7 hPa ENE 4 mph /  6.4 km/h 9 mph /  14.5 km/h 53 % 0 in /  0.0 mm
19:12 73.6 °F /  23.1 °C 55.9 °F /  13.3 °C 29.9 in /  1011.7 hPa South 3 mph /  4.8 km/h 9 mph /  14.5 km/h 54 % 0 in /  0.0 mm
19:17 73.2 °F /  22.9 °C 56.1 °F /  13.4 °C 29.9 in /  1011.7 hPa SSW 2 mph /  3.2 km/h 7 mph /  11.3 km/h 55 % 0 in /  0.0 mm
19:22 73 °F /  22.8 °C 55.9 °F /  13.3 °C 29.9 in /  1011.7 hPa SSW 3 mph /  4.8 km/h 7 mph /  11.3 km/h 55 % 0 in /  0.0 mm
19:32 73.2 °F /  22.9 °C 55.6 °F /  13.1 °C 29.9 in /  1011.7 hPa South 7 mph /  11.3 km/h 9 mph /  14.5 km/h 54 % 0 in /  0.0 mm
19:37 72.9 °F /  22.7 °C 55.8 °F /  13.2 °C 29.9 in /  1011.7 hPa SE 5 mph /  8.0 km/h 9 mph /  14.5 km/h 55 % 0 in /  0.0 mm
19:42 72.7 °F /  22.6 °C 56.1 °F /  13.4 °C 29.9 in /  1011.7 hPa SSW 5 mph /  8.0 km/h 9 mph /  14.5 km/h 56 % 0 in /  0.0 mm
19:52 72.3 °F /  22.4 °C 55.8 °F /  13.2 °C 29.9 in /  1011.7 hPa SW 3 mph /  4.8 km/h 9 mph /  14.5 km/h 56 % 0 in /  0.0 mm
20:02 73 °F /  22.8 °C 55.9 °F /  13.3 °C 29.9 in /  1011.4 hPa South 2 mph /  3.2 km/h 9 mph /  14.5 km/h 55 % 0 in /  0.0 mm
20:12 73.4 °F /  23.0 °C 55.8 °F /  13.2 °C 29.9 in /  1011.4 hPa SSW 3 mph /  4.8 km/h 8 mph /  12.9 km/h 54 % 0 in /  0.0 mm
20:17 73.4 °F /  23.0 °C 55.8 °F /  13.2 °C 29.9 in /  1011.4 hPa South 6 mph /  9.7 km/h 10 mph /  16.1 km/h 54 % 0 in /  0.0 mm
20:22 73.4 °F /  23.0 °C 55.8 °F /  13.2 °C 29.9 in /  1011.4 hPa SSW 6 mph /  9.7 km/h 10 mph /  16.1 km/h 54 % 0 in /  0.0 mm
20:32 73 °F /  22.8 °C 55.9 °F /  13.3 °C 29.9 in /  1011.7 hPa SSW 8 mph /  12.9 km/h 11 mph /  17.7 km/h 55 % 0 in /  0.0 mm
20:42 72.9 °F /  22.7 °C 55.8 °F /  13.2 °C 29.9 in /  1011.7 hPa SW 4 mph /  6.4 km/h 10 mph /  16.1 km/h 55 % 0 in /  0.0 mm
20:47 72.7 °F /  22.6 °C 55.6 °F /  13.1 °C 29.9 in /  1011.7 hPa SW 6 mph /  9.7 km/h 9 mph /  14.5 km/h 55 % 0 in /  0.0 mm
20:52 72.3 °F /  22.4 °C 55.8 °F /  13.2 °C 29.9 in /  1011.7 hPa SSW 3 mph /  4.8 km/h 9 mph /  14.5 km/h 56 % 0 in /  0.0 mm
21:02 71.2 °F /  21.8 °C 55.2 °F /  12.9 °C 29.9 in /  1011.7 hPa SW 7 mph /  11.3 km/h 10 mph /  16.1 km/h 57 % 0 in /  0.0 mm
21:12 70.5 °F /  21.4 °C 55.6 °F /  13.1 °C 29.9 in /  1011.7 hPa SW 4 mph /  6.4 km/h 11 mph /  17.7 km/h 59 % 0 in /  0.0 mm
21:17 70.2 °F /  21.2 °C 55.6 °F /  13.1 °C 29.9 in /  1012.1 hPa SW 3 mph /  4.8 km/h 9 mph /  14.5 km/h 60 % 0 in /  0.0 mm
21:22 70 °F /  21.1 °C 55.9 °F /  13.3 °C 29.9 in /  1012.1 hPa SSE 3 mph /  4.8 km/h 9 mph /  14.5 km/h 61 % 0 in /  0.0 mm
21:32 69.6 °F /  20.9 °C 55.6 °F /  13.1 °C 29.9 in /  1012.1 hPa SSW 4 mph /  6.4 km/h 7 mph /  11.3 km/h 61 % 0 in /  0.0 mm
21:42 69.6 °F /  20.9 °C 55.6 °F /  13.1 °C 29.9 in /  1012.1 hPa SW 2 mph /  3.2 km/h 6 mph /  9.7 km/h 61 % 0 in /  0.0 mm
21:47 69.6 °F /  20.9 °C 55.9 °F /  13.3 °C 29.9 in /  1012.4 hPa South 5 mph /  8.0 km/h 8 mph /  12.9 km/h 62 % 0 in /  0.0 mm
21:52 69.6 °F /  20.9 °C 55.9 °F /  13.3 °C 29.9 in /  1012.4 hPa SSW 3 mph /  4.8 km/h 8 mph /  12.9 km/h 62 % 0 in /  0.0 mm
22:02 69.6 °F /  20.9 °C 55.9 °F /  13.3 °C 29.9 in /  1012.4 hPa SSW 3 mph /  4.8 km/h 8 mph /  12.9 km/h 62 % 0 in /  0.0 mm
22:12 69.6 °F /  20.9 °C 55.9 °F /  13.3 °C 29.9 in /  1012.8 hPa SSW 1 mph /  1.6 km/h 9 mph /  14.5 km/h 62 % 0 in /  0.0 mm
22:17 69.6 °F /  20.9 °C 56.5 °F /  13.6 °C 29.9 in /  1012.8 hPa SSW 3 mph /  4.8 km/h 8 mph /  12.9 km/h 63 % 0 in /  0.0 mm
22:22 69.4 °F /  20.8 °C 56.3 °F /  13.5 °C 29.9 in /  1012.8 hPa SW 4 mph /  6.4 km/h 8 mph /  12.9 km/h 63 % 0 in /  0.0 mm
22:32 69.3 °F /  20.7 °C 56.5 °F /  13.6 °C 29.9 in /  1012.8 hPa SSW 4 mph /  6.4 km/h 7 mph /  11.3 km/h 64 % 0 in /  0.0 mm
22:37 69.3 °F /  20.7 °C 56.5 °F /  13.6 °C 29.9 in /  1012.8 hPa SSW 3 mph /  4.8 km/h 7 mph /  11.3 km/h 64 % 0 in /  0.0 mm
22:42 69.3 °F /  20.7 °C 56.1 °F /  13.4 °C 29.9 in /  1012.8 hPa SW 4 mph /  6.4 km/h 7 mph /  11.3 km/h 63 % 0 in /  0.0 mm
22:47 69.4 °F /  20.8 °C 56.3 °F /  13.5 °C 29.9 in /  1012.8 hPa SW 5 mph /  8.0 km/h 7 mph /  11.3 km/h 63 % 0 in /  0.0 mm
22:52 69.4 °F /  20.8 °C 56.3 °F /  13.5 °C 29.9 in /  1012.8 hPa WSW 3 mph /  4.8 km/h 7 mph /  11.3 km/h 63 % 0 in /  0.0 mm
23:02 68.9 °F /  20.5 °C 55.8 °F /  13.2 °C 29.9 in /  1012.8 hPa SW 3 mph /  4.8 km/h 8 mph /  12.9 km/h 63 % 0 in /  0.0 mm
23:07 68.7 °F /  20.4 °C 55.2 °F /  12.9 °C 29.9 in /  1012.8 hPa SW 6 mph /  9.7 km/h 8 mph /  12.9 km/h 62 % 0 in /  0.0 mm
23:12 68.5 °F /  20.3 °C 55 °F /  12.8 °C 29.9 in /  1012.8 hPa WSW 2 mph /  3.2 km/h 8 mph /  12.9 km/h 62 % 0 in /  0.0 mm
23:17 68.4 °F /  20.2 °C 54.9 °F /  12.7 °C 29.9 in /  1012.8 hPa WSW 4 mph /  6.4 km/h 8 mph /  12.9 km/h 62 % 0 in /  0.0 mm
23:22 68.2 °F /  20.1 °C 54.1 °F /  12.3 °C 29.9 in /  1012.8 hPa SW 2 mph /  3.2 km/h 8 mph /  12.9 km/h 61 % 0 in /  0.0 mm
23:32 68.2 °F /  20.1 °C 54.1 °F /  12.3 °C 29.9 in /  1013.1 hPa SW 4 mph /  6.4 km/h 8 mph /  12.9 km/h 61 % 0 in /  0.0 mm
23:42 68.2 °F /  20.1 °C 54.1 °F /  12.3 °C 29.9 in /  1013.1 hPa WSW 3 mph /  4.8 km/h 10 mph /  16.1 km/h 61 % 0 in /  0.0 mm
23:47 68.2 °F /  20.1 °C 54.1 °F /  12.3 °C 29.9 in /  1013.1 hPa SW 4 mph /  6.4 km/h 13 mph /  20.9 km/h 61 % 0 in /  0.0 mm
23:52 68.2 °F /  20.1 °C 53.8 °F /  12.1 °C 29.9 in /  1012.8 hPa West 5 mph /  8.0 km/h 13 mph /  20.9 km/h 60 % 0 in /  0.0 mm
23:57 68.4 °F /  20.2 °C 54 °F /  12.2 °C 29.9 in /  1013.1 hPa WSW 7 mph /  11.3 km/h 13 mph /  20.9 km/h 60 % 0 in /  0.0 mm
Meteo18
Compliments of Weather Underground - 4 mb

Script developed by  Jim McMurry - jmcmurry@mwt.net Adapted for the template by  Wim van der Kuil - Leuven-Template.eu

You find our weather info also at:

European Weather Network

Weather Underground

Equipment we use:

Weather-station
Davis Vue

Weather-program
Meteohub

Weather-server
Raspberry PI 2 B+

Provider
1 and 1

Davis Vue

Meteohub

Raspberry PI 2 B+

1 and 1